Impacts METAR Board
IDs:

KSTL - St Louis/Lambert Int, MO, US

Updated at: 2100 UTC 15 Jun 2019
Potential Impact None Slight Moderate High
Time 15/09Z 15/10Z 15/11Z 15/12Z 15/13Z 15/14Z 15/15Z 15/16Z 15/17Z 15/18Z 15/19Z 15/20Z 15/21Z
Temp72 72 71 70 70 69 70 71 72 75 78 83 83
Dewpt56 57 59 62 63 64 65 66 66 66 67 67 68
Altim29.82 29.80 29.80 29.80 29.80 29.81 29.84 29.79 29.83 29.82 29.80 29.80 29.80
VIS10 10 6 10 5 6 9 10 10 10 10 10 10
CIG85 -- 70 95 85 110 130 110 110 60 180 250 250
CoverBKNSCTOVCOVCOVCOVCOVCOVCOVCBKNBKNBKNBKN
FltCatVFRVFRVFRVFRMVFRVFRVFRVFRVFRVFRVFRVFRVFR
WX-----TSRA-RA-TSRA-TSRA-RA------------
WDir190180200200220200200150180200210240210
WSpd8 8 8 6 14 12 10 5 9 15 18 13 12
WGst-- -- 17 -- 24 -- -- -- -- 22 27 27 --
Raw hourly METARs
KSTL 150851Z 19008KT 10SM FEW055 BKN085 22/13 A2982 RMK AO2 LTG DSNT NW RAB04E16 SLP089 P0000 60000 T02220133 57017
KSTL 150951Z 18008KT 10SM SCT065 SCT080 SCT095 22/14 A2980 RMK AO2 LTG DSNT W SLP082 T02220139
KSTL 151105Z 20008G17KT 6SM -TSRA FEW046 SCT055CB BKN070 OVC240 22/15 A2980 RMK AO2 LTG DSNT W-N TSB05 OCNL LTGCCCG OHD TS OHD MOV NE P0003 T02170150
KSTL 151159Z 20006KT 10SM -RA FEW042 BKN095 BKN110 OVC170 21/17 A2980 RMK AO2 LTG DSNT NW-NE TSE58 P0000 T02110167
KSTL 151255Z 22014G24KT 5SM -TSRA SCT055CB BKN085 OVC110 21/17 A2980 RMK AO2 LTG DSNT ALQDS OCNL LTGICCCCG ALQDS TS ALQDS MOV NE P0001 T02110172 $
KSTL 151351Z 20012KT 6SM -TSRA FEW034 SCT045CB OVC110 21/18 A2981 RMK AO2 LTG DSNT ALQDS SLP086 OCNL LTGICCCCG S-NW TS S-NW MOV NE P0007 T02060178 $
KSTL 151451Z 20010KT 9SM -RA FEW045 SCT100 OVC130 21/18 A2984 RMK AO2 LTG DSNT S TSE22 SLP097 P0001 60013 T02110183 53017 $
KSTL 151551Z 15005KT 10SM BKN110 OVC250 22/19 A2979 RMK AO2 RAE49 SLP077 P0001 T02170189 $
KSTL 151651Z 18009KT 10SM SCT070 BKN110 OVC250 22/19 A2983 RMK AO2 SLP091 T02220189 $
KSTL 151751Z 20015G22KT 10SM FEW018 BKN060 BKN070 24/19 A2982 RMK AO2 SLP087 60014 T02390189 10239 20206 56009 $
KSTL 151851Z 21018G27KT 10SM FEW029 SCT037 BKN180 26/19 A2980 RMK AO2 PK WND 22030/1839 SLP080 T02560194 $
KSTL 151951Z 24013G27KT 10SM FEW033 SCT180 BKN250 28/19 A2980 RMK AO2 PK WND 21032/1900 SLP078 T02830194 $
KSTL 152051Z 21012KT 10SM SCT032 BKN250 28/20 A2980 RMK AO2 SLP080 T02830200 55005 $



Page loaded:  21:28 UTC  |   02:28 PM Pacific  |   03:28 PM Mountain  |   04:28 PM Central  |   05:28 PM Eastern

 

ADVISORIES

FORECASTS

FORECASTS

OBSERVATIONS

USER TOOLS

ABOUT US